Time;durP1;ratioP1;P1;durP2;ratioP2;P2;SDS_P1;SDS_P2;PMS_P1;PMS_P2;Temp;Humidity;BMP_temperature;BMP_pressure;BME280_temperature;BME280_humidity;BME280_pressure;Samples;Min_cycle;Max_cycle;Signal;HPM_P1;HPM_P2
2021/12/14 00:01:11;;;;;;;11.40;1.90;;;;;;;;;;5015737;28;20789;-19
2021/12/14 00:03:40;;;;;;;15.65;2.15;;;;;;;;;;5015440;28;20046;-19
2021/12/14 00:06:08;;;;;;;8.80;1.65;;;;;;;;;;5015532;28;20066;-19
2021/12/14 00:08:47;;;;;;;12.60;2.38;;;;;;;;;;5015561;28;20397;-19
2021/12/14 00:12:26;;;;;;;9.80;2.08;;;;;;;;;;5015555;28;20030;-19
2021/12/14 00:16:47;;;;;;;14.32;1.75;;;;;;;;;;5015499;28;20025;-21
2021/12/14 00:19:14;;;;;;;8.65;2.35;;;;;;;;;;5015653;28;20030;-19
2021/12/14 00:21:47;;;;;;;12.32;1.83;;;;;;;;;;5015275;28;20038;-20
2021/12/14 00:24:15;;;;;;;12.60;2.33;;;;;;;;;;5015311;28;20076;-20
2021/12/14 00:26:54;;;;;;;7.53;2.40;;;;;;;;;;5015115;28;20034;-20
2021/12/14 00:29:28;;;;;;;8.93;1.20;;;;;;;;;;5015574;28;20404;-20
2021/12/14 00:31:56;;;;;;;11.80;1.88;;;;;;;;;;4997869;28;20041;-19
2021/12/14 00:34:35;;;;;;;8.77;1.65;;;;;;;;;;5015201;28;20074;-19
2021/12/14 00:37:01;;;;;;;12.07;2.10;;;;;;;;;;5015434;28;20030;-20
2021/12/14 00:39:27;;;;;;;7.23;2.07;;;;;;;;;;5015150;28;20468;-19
2021/12/14 00:41:54;;;;;;;12.85;2.00;;;;;;;;;;5015697;28;20034;-20
2021/12/14 00:44:22;;;;;;;9.10;1.90;;;;;;;;;;5015271;28;20045;-20
2021/12/14 00:46:50;;;;;;;13.60;2.08;;;;;;;;;;5014910;28;20022;-19
2021/12/14 00:49:16;;;;;;;9.52;2.25;;;;;;;;;;5014785;28;20021;-19
2021/12/14 00:51:44;;;;;;;6.88;1.52;;;;;;;;;;4997805;28;20539;-19
2021/12/14 00:54:12;;;;;;;12.57;2.60;;;;;;;;;;5014845;28;20460;-20
2021/12/14 00:56:39;;;;;;;6.75;1.48;;;;;;;;;;4997553;28;20033;-20
2021/12/14 00:59:06;;;;;;;6.57;1.00;;;;;;;;;;5014865;28;20041;-19
2021/12/14 01:01:39;;;;;;;8.20;1.40;;;;;;;;;;5014702;28;20041;-19
2021/12/14 01:04:09;;;;;;;7.70;1.48;;;;;;;;;;5014452;28;20117;-19
2021/12/14 01:06:44;;;;;;;7.70;1.58;;;;;;;;;;4997277;28;20445;-20
2021/12/14 01:09:12;;;;;;;4.55;1.33;;;;;;;;;;4997365;28;20048;-19
2021/12/14 01:11:45;;;;;;;9.15;2.15;;;;;;;;;;5014882;28;20101;-20
2021/12/14 01:14:23;;;;;;;5.15;1.50;;;;;;;;;;5014554;28;20088;-19
2021/12/14 01:17:07;;;;;;;7.05;1.13;;;;;;;;;;4997271;28;20358;-19
2021/12/14 01:19:36;;;;;;;9.27;1.50;;;;;;;;;;4997244;28;20034;-19
2021/12/14 01:22:42;;;;;;;8.77;1.40;;;;;;;;;;5014436;28;20088;-19
2021/12/14 01:25:21;;;;;;;9.15;2.08;;;;;;;;;;5014702;28;20030;-19
2021/12/14 01:27:53;;;;;;;10.05;1.33;;;;;;;;;;5014442;28;20034;-20
2021/12/14 01:30:28;;;;;;;10.20;1.17;;;;;;;;;;5014725;28;20334;-19
2021/12/14 01:32:57;;;;;;;6.63;1.60;;;;;;;;;;5014339;28;20030;-20
2021/12/14 01:35:27;;;;;;;9.23;1.58;;;;;;;;;;5014369;28;20038;-19
2021/12/14 01:38:16;;;;;;;8.82;1.83;;;;;;;;;;5014384;28;20037;-19
2021/12/14 01:41:01;;;;;;;5.70;1.58;;;;;;;;;;5014714;28;20029;-19
2021/12/14 01:43:30;;;;;;;6.63;1.60;;;;;;;;;;5014455;28;20029;-19
2021/12/14 01:45:59;;;;;;;9.38;1.45;;;;;;;;;;5014155;28;20029;-19
2021/12/14 01:48:27;;;;;;;6.82;1.30;;;;;;;;;;4997023;28;20022;-19
2021/12/14 01:50:56;;;;;;;6.53;1.38;;;;;;;;;;5014225;28;20029;-20
2021/12/14 01:53:23;;;;;;;7.68;1.70;;;;;;;;;;5014116;28;20037;-19
2021/12/14 01:55:54;;;;;;;6.65;1.27;;;;;;;;;;5014197;28;20037;-19
2021/12/14 01:58:24;;;;;;;8.18;1.20;;;;;;;;;;5014229;28;20037;-20
2021/12/14 02:00:54;;;;;;;7.75;1.73;;;;;;;;;;5015963;28;20057;-20
2021/12/14 02:03:21;;;;;;;6.43;1.10;;;;;;;;;;5017754;28;20498;-19
2021/12/14 02:05:52;;;;;;;6.60;1.48;;;;;;;;;;5017782;28;20132;-19
2021/12/14 02:08:20;;;;;;;9.80;1.40;;;;;;;;;;5017899;28;20018;-20
2021/12/14 02:10:48;;;;;;;5.32;1.23;;;;;;;;;;5017783;28;20088;-19
2021/12/14 02:13:22;;;;;;;5.97;1.40;;;;;;;;;;5017681;28;20026;-20
2021/12/14 02:15:49;;;;;;;4.75;1.15;;;;;;;;;;5018034;28;20064;-19
2021/12/14 02:18:18;;;;;;;4.40;1.02;;;;;;;;;;5017634;28;20034;-20
2021/12/14 02:21:07;;;;;;;8.57;1.15;;;;;;;;;;5017670;28;20049;-20
2021/12/14 02:23:36;;;;;;;5.03;1.05;;;;;;;;;;5005178;28;20041;-19
2021/12/14 02:26:06;;;;;;;9.02;1.42;;;;;;;;;;5017734;28;20100;-19
2021/12/14 02:28:33;;;;;;;4.97;1.30;;;;;;;;;;5017751;28;20097;-19
2021/12/14 02:31:00;;;;;;;5.05;1.20;;;;;;;;;;5017425;28;20018;-20
2021/12/14 02:33:32;;;;;;;6.28;1.30;;;;;;;;;;5017381;28;20026;-19
2021/12/14 02:36:00;;;;;;;8.85;1.60;;;;;;;;;;5017673;28;20049;-21
2021/12/14 02:38:27;;;;;;;12.82;1.90;;;;;;;;;;5017350;28;20029;-20
2021/12/14 02:41:06;;;;;;;8.70;2.03;;;;;;;;;;5017314;28;20030;-19
2021/12/14 02:43:44;;;;;;;7.80;1.40;;;;;;;;;;5017483;28;20037;-20
2021/12/14 02:46:19;;;;;;;6.70;1.20;;;;;;;;;;5017408;28;20034;-20
2021/12/14 02:48:49;;;;;;;8.70;1.83;;;;;;;;;;5017440;28;20361;-20
2021/12/14 02:51:17;;;;;;;8.82;1.50;;;;;;;;;;5017078;28;20056;-20
2021/12/14 02:53:44;;;;;;;10.27;1.65;;;;;;;;;;5017025;28;20100;-20
2021/12/14 02:56:13;;;;;;;6.40;1.30;;;;;;;;;;5017285;28;20412;-20
2021/12/14 02:58:39;;;;;;;6.32;1.30;;;;;;;;;;5017193;28;20408;-20
2021/12/14 03:01:06;;;;;;;8.57;1.52;;;;;;;;;;5017162;28;20164;-20
2021/12/14 03:03:33;;;;;;;4.63;1.30;;;;;;;;;;5016602;28;20045;-19
2021/12/14 03:06:01;;;;;;;6.65;2.03;;;;;;;;;;5016963;28;20353;-19
2021/12/14 03:08:33;;;;;;;6.22;1.30;;;;;;;;;;4999411;28;20030;-19
2021/12/14 03:11:10;;;;;;;8.80;1.58;;;;;;;;;;5016287;28;20034;-19
2021/12/14 03:13:39;;;;;;;4.50;1.00;;;;;;;;;;5016731;28;20446;-19
2021/12/14 03:16:10;;;;;;;5.35;1.17;;;;;;;;;;5016554;28;20029;-20
2021/12/14 03:18:39;;;;;;;7.00;1.35;;;;;;;;;;5016872;28;20115;-20
2021/12/14 03:21:09;;;;;;;8.95;1.85;;;;;;;;;;5016453;28;20030;-20
2021/12/14 03:23:36;;;;;;;4.53;1.02;;;;;;;;;;5016483;28;20038;-19
2021/12/14 03:26:04;;;;;;;8.13;1.13;;;;;;;;;;5016422;28;20026;-20
2021/12/14 03:28:31;;;;;;;3.78;1.23;;;;;;;;;;5016626;28;20371;-19
2021/12/14 03:31:07;;;;;;;5.57;1.40;;;;;;;;;;5016404;28;20030;-19
2021/12/14 03:33:36;;;;;;;2.20;0.77;;;;;;;;;;5016313;28;20084;-19
2021/12/14 03:36:10;;;;;;;9.45;1.35;;;;;;;;;;5016193;28;20025;-19
2021/12/14 03:38:40;;;;;;;3.95;1.45;;;;;;;;;;5016489;28;20453;-19
2021/12/14 03:41:11;;;;;;;5.65;1.13;;;;;;;;;;4999354;28;20030;-19
2021/12/14 03:43:39;;;;;;;6.00;1.20;;;;;;;;;;4998839;28;20026;-19
2021/12/14 03:46:06;;;;;;;5.32;0.95;;;;;;;;;;5016381;28;20033;-19
2021/12/14 03:48:33;;;;;;;5.43;1.33;;;;;;;;;;4998718;28;20034;-18
2021/12/14 03:51:01;;;;;;;4.55;1.52;;;;;;;;;;5016204;28;20040;-19
2021/12/14 03:53:28;;;;;;;6.82;1.70;;;;;;;;;;5015808;28;20030;-18
2021/12/14 03:55:58;;;;;;;6.40;1.10;;;;;;;;;;5015885;28;20030;-18
2021/12/14 03:58:34;;;;;;;4.95;1.33;;;;;;;;;;5015868;28;20048;-18
2021/12/14 04:01:02;;;;;;;7.03;1.23;;;;;;;;;;5015791;28;20529;-19
2021/12/14 04:03:29;;;;;;;7.93;1.60;;;;;;;;;;4994962;28;20057;-18
2021/12/14 04:05:56;;;;;;;7.32;1.02;;;;;;;;;;4994956;28;20030;-19
2021/12/14 04:08:24;;;;;;;8.07;1.43;;;;;;;;;;4996020;28;20022;-19
2021/12/14 04:10:53;;;;;;;6.32;1.30;;;;;;;;;;4995918;28;20720;-19
2021/12/14 04:13:21;;;;;;;9.05;1.50;;;;;;;;;;4995967;28;20046;-19
2021/12/14 04:15:48;;;;;;;5.57;1.48;;;;;;;;;;4996154;28;20066;-19
2021/12/14 04:18:16;;;;;;;5.85;1.17;;;;;;;;;;4996097;28;20038;-19
2021/12/14 04:20:44;;;;;;;5.20;1.35;;;;;;;;;;4995792;28;20093;-19
2021/12/14 04:23:16;;;;;;;4.70;1.10;;;;;;;;;;4995241;28;20043;-19
2021/12/14 04:25:43;;;;;;;5.53;1.40;;;;;;;;;;4995659;28;20030;-18
2021/12/14 04:28:10;;;;;;;5.07;0.82;;;;;;;;;;4995731;28;20023;-19
2021/12/14 04:30:37;;;;;;;3.92;1.13;;;;;;;;;;4995884;28;20335;-19
2021/12/14 04:33:07;;;;;;;4.82;0.95;;;;;;;;;;4995351;28;20528;-19
2021/12/14 04:35:38;;;;;;;3.72;0.98;;;;;;;;;;4995599;28;20033;-19
2021/12/14 04:38:13;;;;;;;4.97;1.30;;;;;;;;;;4995282;28;20122;-19
2021/12/14 04:54:25;;;;;;;5.85;1.33;;;;;;;;;;4995228;28;20133;-19
2021/12/14 04:56:53;;;;;;;5.45;1.05;;;;;;;;;;4994825;28;20049;-19
2021/12/14 04:59:23;;;;;;;8.43;1.10;;;;;;;;;;4994555;28;20030;-20
2021/12/14 05:01:52;;;;;;;5.90;1.13;;;;;;;;;;4993872;28;20108;-20
2021/12/14 05:04:21;;;;;;;7.85;1.60;;;;;;;;;;5007906;28;20136;-19
2021/12/14 05:06:51;;;;;;;4.40;1.10;;;;;;;;;;5014136;28;20037;-19
2021/12/14 05:09:24;;;;;;;5.25;0.90;;;;;;;;;;4997017;28;20045;-19
2021/12/14 05:11:52;;;;;;;6.75;1.20;;;;;;;;;;5013960;28;20018;-20
2021/12/14 05:14:20;;;;;;;8.00;1.75;;;;;;;;;;5014230;28;20026;-19
2021/12/14 05:16:48;;;;;;;7.88;1.80;;;;;;;;;;5014134;28;20160;-19
2021/12/14 05:19:16;;;;;;;7.20;1.27;;;;;;;;;;5013883;28;20038;-20
2021/12/14 05:21:47;;;;;;;6.72;1.60;;;;;;;;;;5013872;28;20413;-19
2021/12/14 05:24:16;;;;;;;17.00;1.80;;;;;;;;;;5014002;28;20030;-20
2021/12/14 05:26:45;;;;;;;7.75;1.55;;;;;;;;;;5013539;28;20037;-20
2021/12/14 05:29:12;;;;;;;5.70;1.08;;;;;;;;;;5013672;28;20683;-19
2021/12/14 05:31:46;;;;;;;6.53;1.20;;;;;;;;;;5013583;28;20089;-20
2021/12/14 05:34:13;;;;;;;9.05;2.45;;;;;;;;;;5014007;28;20026;-19
2021/12/14 05:36:41;;;;;;;5.88;1.40;;;;;;;;;;5018384;28;20022;-19
2021/12/14 05:44:32;;;;;;;8.55;1.77;;;;;;;;;;5018131;28;20093;-18
2021/12/14 05:46:59;;;;;;;;;;;;;;;;;;5018445;28;20104;-19
2021/12/14 05:49:28;;;;;;;8.45;1.10;;;;;;;;;;5017824;28;19909;-19
2021/12/14 05:51:55;;;;;;;10.15;1.30;;;;;;;;;;5018003;28;20391;-19
2021/12/14 05:54:24;;;;;;;8.50;1.48;;;;;;;;;;5018013;28;20032;-19
2021/12/14 05:56:53;;;;;;;9.10;1.67;;;;;;;;;;5017805;28;20033;-18
2021/12/14 05:59:20;;;;;;;5.65;1.30;;;;;;;;;;5000440;28;20095;-19
2021/12/14 06:01:48;;;;;;;8.68;1.35;;;;;;;;;;5000410;28;20041;-19
2021/12/14 06:04:14;;;;;;;;;;;;;;;;;;5017790;28;20054;-18
2021/12/14 06:06:43;;;;;;;15.80;2.05;;;;;;;;;;5000151;28;19917;-19
2021/12/14 06:09:14;;;;;;;13.48;1.70;;;;;;;;;;5018045;28;20034;-18
2021/12/14 06:11:42;;;;;;;11.98;2.22;;;;;;;;;;5017690;28;20034;-20
2021/12/14 06:14:14;;;;;;;7.95;0.93;;;;;;;;;;5017433;28;20108;-19
2021/12/14 06:16:40;;;;;;;15.95;2.25;;;;;;;;;;5017350;28;20042;-19
2021/12/14 06:19:16;;;;;;;7.13;1.40;;;;;;;;;;5017383;28;20125;-19
2021/12/14 06:21:43;;;;;;;8.27;1.65;;;;;;;;;;5017712;28;20060;-18
2021/12/14 06:24:10;;;;;;;11.38;1.50;;;;;;;;;;5017447;28;20113;-18
2021/12/14 06:26:43;;;;;;;10.68;1.83;;;;;;;;;;5017254;28;20045;-19
2021/12/14 06:29:12;;;;;;;5.68;1.40;;;;;;;;;;5000503;28;20025;-18
2021/12/14 06:31:43;;;;;;;10.30;1.20;;;;;;;;;;5017653;28;20028;-18
2021/12/14 06:34:13;;;;;;;11.15;2.22;;;;;;;;;;5017529;28;20022;-18
2021/12/14 06:37:06;;;;;;;9.18;1.80;;;;;;;;;;5017339;28;20030;-19
2021/12/14 06:39:53;;;;;;;9.95;2.35;;;;;;;;;;5017043;28;20038;-19
2021/12/14 06:42:20;;;;;;;10.68;1.63;;;;;;;;;;5016489;28;20034;-19
2021/12/14 06:44:47;;;;;;;16.73;2.45;;;;;;;;;;5017043;28;20030;-18
2021/12/14 06:47:13;;;;;;;10.90;2.10;;;;;;;;;;4999258;28;20077;-18
2021/12/14 06:49:41;;;;;;;8.60;1.60;;;;;;;;;;5017338;28;20096;-19
2021/12/14 06:52:07;;;;;;;5.85;1.17;;;;;;;;;;5016995;28;20084;-18
2021/12/14 06:54:34;;;;;;;16.95;1.98;;;;;;;;;;5016879;28;20028;-19
2021/12/14 06:57:02;;;;;;;13.48;1.63;;;;;;;;;;4999234;28;20041;-19
2021/12/14 06:59:28;;;;;;;11.88;2.35;;;;;;;;;;5016934;28;20033;-21
2021/12/14 07:02:05;;;;;;;12.10;1.47;;;;;;;;;;5016856;28;20041;-19
2021/12/14 07:04:33;;;;;;;15.15;2.03;;;;;;;;;;4999166;28;20157;-19
2021/12/14 07:07:01;;;;;;;14.23;1.85;;;;;;;;;;5016831;28;20030;-18
2021/12/14 07:09:33;;;;;;;13.45;2.30;;;;;;;;;;4998782;28;20091;-18
2021/12/14 07:12:16;;;;;;;12.95;2.47;;;;;;;;;;5016343;28;20033;-19
2021/12/14 07:14:45;;;;;;;13.00;2.33;;;;;;;;;;5016058;28;20100;-18
2021/12/14 07:17:14;;;;;;;13.45;1.50;;;;;;;;;;5015980;28;20038;-19
2021/12/14 07:19:41;;;;;;;10.35;1.90;;;;;;;;;;4998708;28;20030;-19
2021/12/14 07:22:12;;;;;;;7.97;1.33;;;;;;;;;;5015813;28;20369;-19
2021/12/14 07:24:38;;;;;;;12.27;1.63;;;;;;;;;;5016094;28;20167;-19
2021/12/14 07:27:17;;;;;;;10.38;1.63;;;;;;;;;;5015922;28;20496;-19
2021/12/14 07:29:43;;;;;;;6.72;1.42;;;;;;;;;;4998247;28;20169;-18
2021/12/14 07:32:10;;;;;;;3.45;0.95;;;;;;;;;;5015526;28;20041;-19
2021/12/14 07:34:36;;;;;;;11.32;1.73;;;;;;;;;;4998104;28;20041;-18
2021/12/14 07:37:03;;;;;;;13.68;2.30;;;;;;;;;;5015370;28;20101;-19
2021/12/14 07:39:30;;;;;;;12.25;1.50;;;;;;;;;;4998240;28;20105;-18
2021/12/14 07:42:01;;;;;;;19.52;2.78;;;;;;;;;;4998344;28;20042;-19
2021/12/14 07:44:32;;;;;;;10.43;1.75;;;;;;;;;;5016308;28;20373;-19
2021/12/14 07:47:14;;;;;;;13.32;1.85;;;;;;;;;;4998491;28;20487;-19
2021/12/14 07:49:42;;;;;;;11.82;2.13;;;;;;;;;;5015976;28;20041;-19
2021/12/14 07:52:08;;;;;;;13.70;1.55;;;;;;;;;;5015640;28;20068;-19
2021/12/14 07:54:45;;;;;;;6.90;1.65;;;;;;;;;;5015883;28;20305;-18
2021/12/14 07:57:14;;;;;;;12.45;1.33;;;;;;;;;;5015647;28;20027;-18
2021/12/14 07:59:45;;;;;;;14.38;1.90;;;;;;;;;;5014905;28;20026;-18
2021/12/14 08:02:21;;;;;;;11.93;1.70;;;;;;;;;;5015764;28;20111;-18
2021/12/14 08:04:58;;;;;;;18.77;2.40;;;;;;;;;;5015214;28;20461;-18
2021/12/14 08:07:30;;;;;;;13.68;2.33;;;;;;;;;;5015580;28;20101;-18
2021/12/14 08:10:17;;;;;;;16.98;2.15;;;;;;;;;;5015390;28;20057;-19
2021/12/14 08:12:51;;;;;;;8.05;1.90;;;;;;;;;;5015211;28;20061;-19
2021/12/14 08:15:19;;;;;;;28.80;2.80;;;;;;;;;;5015176;28;20033;-19
2021/12/14 08:17:48;;;;;;;16.80;2.80;;;;;;;;;;5015693;28;20038;-21
2021/12/14 08:20:21;;;;;;;26.73;2.70;;;;;;;;;;4997660;28;20103;-19
2021/12/14 08:22:47;;;;;;;13.32;1.70;;;;;;;;;;5015231;28;20357;-20
2021/12/14 08:25:15;;;;;;;14.90;1.67;;;;;;;;;;5015550;28;20026;-20
2021/12/14 08:27:42;;;;;;;19.20;2.15;;;;;;;;;;5015440;28;20030;-20
2021/12/14 08:30:13;;;;;;;16.48;2.33;;;;;;;;;;4997859;28;20449;-20
2021/12/14 08:32:40;;;;;;;12.25;1.55;;;;;;;;;;4997471;28;20088;-20
2021/12/14 08:35:06;;;;;;;;;;;;;;;;;;4997748;28;20108;-20
2021/12/14 08:37:35;;;;;;;14.48;2.88;;;;;;;;;;5014877;28;19945;-20
2021/12/14 08:40:07;;;;;;;16.48;2.08;;;;;;;;;;5014850;28;20076;-19
2021/12/14 08:42:38;;;;;;;17.45;1.80;;;;;;;;;;4997564;28;20060;-19
2021/12/14 08:45:24;;;;;;;13.50;2.10;;;;;;;;;;5014682;28;20117;-19
2021/12/14 08:47:52;;;;;;;17.87;2.33;;;;;;;;;;5014851;28;20460;-19
2021/12/14 08:50:18;;;;;;;22.20;2.78;;;;;;;;;;5014752;28;20084;-18
2021/12/14 08:52:45;;;;;;;25.27;2.67;;;;;;;;;;5014630;28;20109;-21
2021/12/14 08:55:12;;;;;;;;;;;;;;;;;;5015294;28;20029;-19
2021/12/14 08:57:40;;;;;;;18.07;2.40;;;;;;;;;;5014865;28;19965;-19
2021/12/14 09:00:12;;;;;;;13.52;1.58;;;;;;;;;;5014716;28;20040;-19
2021/12/14 09:02:40;;;;;;;17.85;2.53;;;;;;;;;;5014659;28;20030;-18
2021/12/14 09:05:12;;;;;;;20.02;3.05;;;;;;;;;;4997118;28;20046;-18
2021/12/14 09:07:42;;;;;;;13.93;1.38;;;;;;;;;;4997081;28;20465;-18
2021/12/14 09:10:12;;;;;;;17.17;2.75;;;;;;;;;;5014574;28;20041;-19
2021/12/14 09:12:41;;;;;;;22.45;2.60;;;;;;;;;;5014330;28;20026;-19
2021/12/14 09:15:15;;;;;;;21.10;2.92;;;;;;;;;;5014306;28;20029;-19
2021/12/14 09:17:45;;;;;;;14.00;2.35;;;;;;;;;;5014689;28;20029;-19
2021/12/14 09:20:15;;;;;;;21.15;2.05;;;;;;;;;;5014481;28;20033;-19
2021/12/14 09:22:43;;;;;;;18.02;2.42;;;;;;;;;;5014277;28;20353;-18
2021/12/14 09:25:13;;;;;;;13.30;2.03;;;;;;;;;;5014674;28;20049;-19
2021/12/14 09:27:41;;;;;;;12.55;2.05;;;;;;;;;;5014378;28;20125;-19
2021/12/14 09:30:09;;;;;;;11.23;2.13;;;;;;;;;;5013948;28;20084;-17
2021/12/14 09:32:36;;;;;;;13.82;2.08;;;;;;;;;;5014155;28;20048;-19
2021/12/14 09:35:06;;;;;;;16.20;2.30;;;;;;;;;;5014004;28;20088;-19
2021/12/14 09:41:01;;;;;;;14.95;2.05;;;;;;;;;;5014387;28;20037;-19
2021/12/14 09:43:35;;;;;;;12.55;2.03;;;;;;;;;;5013896;28;20038;-19
2021/12/14 09:46:03;;;;;;;10.50;1.60;;;;;;;;;;5013927;28;20040;-18
2021/12/14 09:48:41;;;;;;;13.32;2.85;;;;;;;;;;5014072;28;20033;-19
2021/12/14 09:51:15;;;;;;;20.77;2.88;;;;;;;;;;5013757;28;20056;-20
2021/12/14 09:53:43;;;;;;;12.68;2.40;;;;;;;;;;5013722;28;20342;-19
2021/12/14 09:56:12;;;;;;;11.18;1.83;;;;;;;;;;5014015;28;20034;-19
2021/12/14 09:58:41;;;;;;;10.13;1.90;;;;;;;;;;5014003;28;20036;-21
2021/12/14 10:01:34;;;;;;;17.90;2.42;;;;;;;;;;5013329;28;20080;-20
2021/12/14 10:04:12;;;;;;;14.90;1.98;;;;;;;;;;5008444;28;20136;-19
2021/12/14 10:06:39;;;;;;;10.02;1.80;;;;;;;;;;5013545;28;20030;-20
2021/12/14 10:09:09;;;;;;;10.45;2.20;;;;;;;;;;5013836;28;20026;-20
2021/12/14 10:11:59;;;;;;;16.48;2.65;;;;;;;;;;5013538;28;20088;-20
2021/12/14 10:14:27;;;;;;;14.93;2.20;;;;;;;;;;5013270;28;20025;-19
2021/12/14 10:16:55;;;;;;;11.35;2.08;;;;;;;;;;5013178;28;20332;-19
2021/12/14 10:19:24;;;;;;;14.35;2.30;;;;;;;;;;5013413;28;20030;-19
2021/12/14 10:21:57;;;;;;;12.55;1.73;;;;;;;;;;4997478;28;20045;-19
2021/12/14 10:24:28;;;;;;;12.65;2.45;;;;;;;;;;5017425;28;20353;-19
2021/12/14 10:26:54;;;;;;;;;;;;;;;;;;5017146;28;20076;-20
2021/12/14 10:29:21;;;;;;;9.60;1.80;;;;;;;;;;5016801;28;19980;-19
2021/12/14 10:31:50;;;;;;;10.77;1.77;;;;;;;;;;5017333;28;20296;-19
2021/12/14 10:34:18;;;;;;;20.90;2.33;;;;;;;;;;5016735;28;20097;-19
2021/12/14 10:36:51;;;;;;;11.00;2.20;;;;;;;;;;5016356;28;20026;-19
2021/12/14 10:39:38;;;;;;;23.10;2.88;;;;;;;;;;5016405;28;20073;-20
2021/12/14 10:44:56;;;;;;;12.18;2.35;;;;;;;;;;5017284;28;20045;-20
2021/12/14 10:47:22;;;;;;;;;;;;;;;;;;5017384;28;20034;-20
2021/12/14 10:49:49;;;;;;;12.93;2.17;;;;;;;;;;5017085;28;19964;-20
2021/12/14 10:52:18;;;;;;;13.70;2.80;;;;;;;;;;4999254;28;20049;-20
2021/12/14 10:54:48;;;;;;;15.63;2.72;;;;;;;;;;5017323;28;20437;-20
2021/12/14 10:57:19;;;;;;;11.45;2.47;;;;;;;;;;5017102;28;20079;-20
2021/12/14 10:59:48;;;;;;;13.00;1.58;;;;;;;;;;5016741;28;20037;-20
2021/12/14 11:02:20;;;;;;;21.42;3.00;;;;;;;;;;5016572;28;20033;-19
2021/12/14 11:04:54;;;;;;;14.15;2.10;;;;;;;;;;5016527;28;20374;-19
2021/12/14 11:07:22;;;;;;;15.40;2.83;;;;;;;;;;5016609;28;20060;-19
2021/12/14 11:09:55;;;;;;;14.23;2.22;;;;;;;;;;5017032;28;20036;-19
2021/12/14 11:12:31;;;;;;;12.35;1.88;;;;;;;;;;5016355;28;20091;-20
2021/12/14 11:15:06;;;;;;;18.27;2.22;;;;;;;;;;5016914;28;20472;-20
2021/12/14 11:20:32;;;;;;;13.80;2.65;;;;;;;;;;5016387;28;20113;-21
2021/12/14 11:23:09;;;;;;;15.38;2.50;;;;;;;;;;5016500;28;20407;-20
2021/12/14 11:25:36;;;;;;;;;;;;;;;;;;5016921;28;20475;-20
2021/12/14 11:28:05;;;;;;;11.18;1.95;;;;;;;;;;5016442;28;19911;-20
2021/12/14 11:30:35;;;;;;;14.48;2.42;;;;;;;;;;5016180;28;20437;-20
2021/12/14 11:33:01;;;;;;;17.10;2.10;;;;;;;;;;4998146;28;20104;-18
2021/12/14 11:35:28;;;;;;;21.42;2.60;;;;;;;;;;5016180;28;20468;-19
2021/12/14 11:37:56;;;;;;;13.30;1.88;;;;;;;;;;5015989;28;20088;-20
2021/12/14 11:40:26;;;;;;;10.57;1.92;;;;;;;;;;5015716;28;20026;-19
2021/12/14 11:42:54;;;;;;;11.77;3.33;;;;;;;;;;5015785;28;20482;-19
2021/12/14 11:45:23;;;;;;;15.45;3.20;;;;;;;;;;5015815;28;20083;-19
2021/12/14 11:47:58;;;;;;;14.85;2.28;;;;;;;;;;5015954;28;20178;-20
2021/12/14 11:50:28;;;;;;;10.27;1.65;;;;;;;;;;5016095;28;20365;-19
2021/12/14 11:53:03;;;;;;;12.93;2.33;;;;;;;;;;5015655;28;20111;-19
2021/12/14 11:55:29;;;;;;;15.23;2.25;;;;;;;;;;5015564;28;20029;-19
2021/12/14 11:58:16;;;;;;;13.93;2.83;;;;;;;;;;5015430;28;20121;-19
2021/12/14 12:00:51;;;;;;;13.68;2.38;;;;;;;;;;5015591;28;20365;-19
2021/12/14 12:03:20;;;;;;;12.43;2.20;;;;;;;;;;5015114;28;20352;-20
2021/12/14 12:06:07;;;;;;;16.05;2.33;;;;;;;;;;5015313;28;20065;-20
2021/12/14 12:17:59;;;;;;;10.75;2.10;;;;;;;;;;5015144;28;20037;-20
2021/12/14 12:20:42;;;;;;;11.30;2.38;;;;;;;;;;5000342;28;20436;-20
2021/12/14 12:23:12;;;;;;;19.77;3.00;;;;;;;;;;4999865;28;20030;-20
2021/12/14 12:25:58;;;;;;;12.65;2.63;;;;;;;;;;4999523;28;20187;-19
2021/12/14 12:28:46;;;;;;;9.27;2.45;;;;;;;;;;5000588;28;20030;-21
2021/12/14 12:31:28;;;;;;;23.27;2.83;;;;;;;;;;5001641;28;20482;-20
2021/12/14 12:33:57;;;;;;;11.52;2.88;;;;;;;;;;5001143;28;20034;-20
2021/12/14 12:36:41;;;;;;;11.23;3.17;;;;;;;;;;4999629;28;20370;-20
2021/12/14 12:39:15;;;;;;;17.23;3.88;;;;;;;;;;4999778;28;20366;-18
2021/12/14 12:41:47;;;;;;;11.25;2.05;;;;;;;;;;4997766;28;20072;-19
2021/12/14 12:44:21;;;;;;;16.50;2.40;;;;;;;;;;5014111;28;20041;-19
2021/12/14 12:46:56;;;;;;;16.05;3.85;;;;;;;;;;5014645;28;20029;-19
2021/12/14 12:49:27;;;;;;;18.27;2.45;;;;;;;;;;5014747;28;20034;-19
2021/12/14 12:52:12;;;;;;;24.08;2.75;;;;;;;;;;4997201;28;20049;-19
2021/12/14 12:54:55;;;;;;;30.30;3.83;;;;;;;;;;5014998;28;20436;-19
2021/12/14 12:57:37;;;;;;;14.80;2.15;;;;;;;;;;4997097;28;20496;-19
2021/12/14 13:00:11;;;;;;;31.67;3.13;;;;;;;;;;5014992;28;20045;-19
2021/12/14 13:02:57;;;;;;;15.35;2.13;;;;;;;;;;4997022;28;20473;-19
2021/12/14 13:05:49;;;;;;;19.00;3.15;;;;;;;;;;4980729;28;20053;-19
2021/12/14 13:08:29;;;;;;;24.67;2.58;;;;;;;;;;5014366;28;20049;-20
2021/12/14 13:11:11;;;;;;;14.65;2.00;;;;;;;;;;5014472;28;20095;-20
2021/12/14 13:13:41;;;;;;;13.27;2.00;;;;;;;;;;5014146;28;20461;-20
2021/12/14 13:19:19;;;;;;;14.02;2.30;;;;;;;;;;5014418;28;20033;-20
2021/12/14 13:21:51;;;;;;;21.02;3.45;;;;;;;;;;5014103;28;20033;-18
2021/12/14 13:24:20;;;;;;;14.73;2.53;;;;;;;;;;5014119;28;20037;-19
2021/12/14 13:26:47;;;;;;;17.80;2.53;;;;;;;;;;5014008;28;20037;-19
2021/12/14 13:29:17;;;;;;;17.13;2.42;;;;;;;;;;5014502;28;20030;-19
2021/12/14 13:32:04;;;;;;;15.80;2.30;;;;;;;;;;5013920;28;20017;-19
2021/12/14 13:34:40;;;;;;;17.02;2.80;;;;;;;;;;5014460;28;20108;-23
2021/12/14 13:37:07;;;;;;;19.00;2.65;;;;;;;;;;5014416;28;20349;-20
2021/12/14 13:39:36;;;;;;;22.95;2.20;;;;;;;;;;5014295;28;20040;-20
2021/12/14 13:42:07;;;;;;;10.63;2.25;;;;;;;;;;4996722;28;20369;-20
2021/12/14 13:44:36;;;;;;;16.20;2.50;;;;;;;;;;5014023;28;20405;-20
2021/12/14 13:47:04;;;;;;;20.15;2.67;;;;;;;;;;5013655;28;20073;-19
2021/12/14 13:49:31;;;;;;;15.27;2.20;;;;;;;;;;5013891;28;20085;-19
2021/12/14 13:51:58;;;;;;;27.80;2.63;;;;;;;;;;5013735;28;20406;-19
2021/12/14 13:54:25;;;;;;;31.75;3.85;;;;;;;;;;5013823;28;20030;-19
2021/12/14 13:56:52;;;;;;;20.02;2.67;;;;;;;;;;5016984;28;20083;-19
2021/12/14 13:59:19;;;;;;;17.58;2.67;;;;;;;;;;5017323;28;20041;-19
2021/12/14 14:01:46;;;;;;;;;;;;;;;;;;5017910;28;20030;-19
2021/12/14 14:04:15;;;;;;;12.95;2.72;;;;;;;;;;5017384;28;20038;-19
2021/12/14 14:06:42;;;;;;;15.95;1.98;;;;;;;;;;5017792;28;20029;-26
2021/12/14 14:09:15;;;;;;;17.58;3.50;;;;;;;;;;5000294;28;20116;-19
2021/12/14 14:11:46;;;;;;;10.57;2.10;;;;;;;;;;5017912;28;20036;-19
2021/12/14 14:14:15;;;;;;;13.55;1.70;;;;;;;;;;5018073;28;20029;-19
2021/12/14 14:16:50;;;;;;;26.15;4.00;;;;;;;;;;5017631;28;20137;-19
2021/12/14 14:19:18;;;;;;;12.95;2.33;;;;;;;;;;5017747;28;20056;-19
2021/12/14 14:21:53;;;;;;;22.25;2.60;;;;;;;;;;5017349;28;20127;-19
2021/12/14 14:24:21;;;;;;;19.55;2.30;;;;;;;;;;5017470;28;20030;-19
2021/12/14 14:26:48;;;;;;;16.65;2.40;;;;;;;;;;5017189;28;20045;-18
2021/12/14 14:29:16;;;;;;;26.40;3.20;;;;;;;;;;5017340;28;20361;-19
2021/12/14 14:31:48;;;;;;;15.02;2.42;;;;;;;;;;5018063;28;20018;-19
2021/12/14 14:34:25;;;;;;;14.65;2.35;;;;;;;;;;5017629;28;20026;-19
2021/12/14 14:36:56;;;;;;;23.08;3.45;;;;;;;;;;5017622;28;20294;-20
2021/12/14 14:39:23;;;;;;;19.65;2.33;;;;;;;;;;5017253;28;20049;-20
2021/12/14 14:41:49;;;;;;;25.95;2.85;;;;;;;;;;5017363;28;20053;-19
2021/12/14 14:44:23;;;;;;;23.48;2.38;;;;;;;;;;5017032;28;20030;-19
2021/12/14 14:46:51;;;;;;;18.55;2.88;;;;;;;;;;5016689;28;20022;-19
2021/12/14 14:49:19;;;;;;;14.23;2.25;;;;;;;;;;5017214;28;20453;-19
2021/12/14 14:51:58;;;;;;;27.67;2.53;;;;;;;;;;4999460;28;20368;-19
2021/12/14 14:54:33;;;;;;;11.90;1.80;;;;;;;;;;5016873;28;20480;-20
2021/12/14 14:57:19;;;;;;;19.08;2.40;;;;;;;;;;5016890;28;20065;-20
2021/12/14 14:59:55;;;;;;;19.35;3.03;;;;;;;;;;5016731;28;20421;-20
2021/12/14 15:02:49;;;;;;;16.80;2.38;;;;;;;;;;5016814;28;20061;-20
2021/12/14 15:05:16;;;;;;;9.05;2.47;;;;;;;;;;4999169;28;20065;-20
2021/12/14 15:07:52;;;;;;;19.77;3.38;;;;;;;;;;4998661;28;20092;-20
2021/12/14 15:10:20;;;;;;;17.60;1.77;;;;;;;;;;5016935;28;20408;-19
2021/12/14 15:13:08;;;;;;;13.43;2.55;;;;;;;;;;5016462;28;20046;-19
2021/12/14 15:15:34;;;;;;;19.88;2.85;;;;;;;;;;5016388;28;20026;-19
2021/12/14 15:18:03;;;;;;;16.58;2.67;;;;;;;;;;5016723;28;20030;-22
2021/12/14 15:20:34;;;;;;;20.73;2.78;;;;;;;;;;5016934;28;20022;-19
2021/12/14 15:23:02;;;;;;;28.60;4.03;;;;;;;;;;5016710;28;20420;-20
2021/12/14 15:25:29;;;;;;;15.05;2.83;;;;;;;;;;5016132;28;20026;-19
2021/12/14 15:28:05;;;;;;;16.75;2.38;;;;;;;;;;5016138;28;20413;-20
2021/12/14 15:30:32;;;;;;;18.95;3.40;;;;;;;;;;4999361;28;20113;-20
2021/12/14 15:33:16;;;;;;;21.33;3.15;;;;;;;;;;5016363;28;20026;-20
2021/12/14 15:35:54;;;;;;;14.80;2.10;;;;;;;;;;5016343;28;20022;-19
2021/12/14 15:38:29;;;;;;;23.77;2.50;;;;;;;;;;5016347;28;20353;-18
2021/12/14 15:40:56;;;;;;;16.92;2.65;;;;;;;;;;5016177;28;20030;-19
2021/12/14 15:43:30;;;;;;;20.98;3.42;;;;;;;;;;4998514;28;20350;-19
2021/12/14 15:45:57;;;;;;;21.77;3.00;;;;;;;;;;5016205;28;20033;-19